Abington, Indiana
Current Conditions -  °F | °C
As of 2:53 PM on Friday 19 Dec 2014 (Local Time) from KMIE Reporting Station
Haze Haze  
Wind Chill: -2°   Ceiling: 2500
Heat Index: -2°   Visibility: 6mi
Dew Point: -4°   Wind: 0mph
Humidity: 82%   Direction: NA
Pressure: 30.25"   Gusts: NA
Location:  39.7862°N, 85.0229°W
Report Text: KMIE 191953Z 00000KT 6SM HZ FEW012 OVC025 M02/M04 A3025 RMK AO2 SLP253 T10171044
Loading
Personal Weather Stations






























Interactive Weather Map New forecast layout! Learn more

10-Day Weather Forecast

Advertisements
Track Severe Weather on mobile